createdAt,value
2022-09-20T00:01:25.380Z,97862.75
2022-09-20T00:03:54.618Z,97863.66
2022-09-20T00:06:23.891Z,97867.84
2022-09-20T00:08:51.345Z,97865.31
2022-09-20T00:11:32.041Z,97863.81
2022-09-20T00:14:01.022Z,97861.28
2022-09-20T00:16:32.993Z,97858.38
2022-09-20T00:19:03.979Z,97852.91
2022-09-20T00:21:32.726Z,97854.38
2022-09-20T00:24:00.076Z,97855.81
2022-09-20T00:26:27.769Z,97856.00
2022-09-20T00:28:54.928Z,97859.81
2022-09-20T00:31:21.971Z,97857.81
2022-09-20T00:34:07.305Z,97854.38
2022-09-20T00:36:34.195Z,97852.91
2022-09-20T00:39:03.139Z,97851.28
2022-09-20T00:41:31.392Z,97847.28
2022-09-20T00:44:00.261Z,97840.19
2022-09-20T00:46:35.898Z,97847.28
2022-09-20T00:49:18.637Z,97852.19
2022-09-20T00:51:47.374Z,97852.41
2022-09-20T00:54:20.361Z,97845.66
2022-09-20T00:56:48.745Z,97851.47
2022-09-20T00:59:22.738Z,97846.75
2022-09-20T01:01:56.301Z,97851.31
2022-09-20T01:04:25.474Z,97852.56
2022-09-20T01:06:54.843Z,97847.47
2022-09-20T01:09:21.470Z,97846.00
2022-09-20T01:11:50.624Z,97847.66
2022-09-20T01:14:20.146Z,97847.84
2022-09-20T01:16:46.853Z,97847.66
2022-09-20T01:19:56.700Z,97844.91
2022-09-20T01:22:44.004Z,97839.66
2022-09-20T01:25:14.873Z,97840.19
2022-09-20T01:27:47.298Z,97840.19
2022-09-20T01:30:18.564Z,97842.38
2022-09-20T01:33:08.742Z,97839.09
2022-09-20T01:35:36.966Z,97844.72
2022-09-20T01:38:42.101Z,97845.84
2022-09-20T01:41:23.826Z,97841.28
2022-09-20T01:44:15.609Z,97846.72
2022-09-20T01:46:44.001Z,97842.38
2022-09-20T01:49:55.426Z,97835.81
2022-09-20T01:53:10.158Z,97835.09
2022-09-20T01:56:27.745Z,97844.91
2022-09-20T01:59:24.328Z,97832.91
2022-09-20T02:22:48.958Z,97830.19
2022-09-20T02:25:35.538Z,97825.47
2022-09-20T03:14:02.865Z,97838.94
2022-09-20T03:16:40.301Z,97844.19
2022-09-20T03:19:48.936Z,97847.13
2022-09-20T03:22:39.344Z,97852.19
2022-09-20T03:25:33.204Z,97849.66
2022-09-20T03:28:22.817Z,97851.66
2022-09-20T03:31:33.972Z,97862.00
2022-09-20T03:34:39.487Z,97849.81
2022-09-20T03:37:45.249Z,97847.28
2022-09-20T03:40:46.338Z,97854.00
2022-09-20T03:43:37.950Z,97854.53
2022-09-20T03:46:29.152Z,97858.38
2022-09-20T03:49:19.621Z,97860.34
2022-09-20T03:52:27.385Z,97855.81
2022-09-20T03:55:10.644Z,97852.34
2022-09-20T03:57:45.966Z,97857.44
2022-09-20T04:00:49.461Z,97861.09
2022-09-20T04:03:36.113Z,97849.78
2022-09-20T04:06:43.698Z,97859.97
2022-09-20T04:09:51.463Z,97856.88
2022-09-20T04:13:10.250Z,97855.81
2022-09-20T04:16:13.731Z,97863.44
2022-09-20T04:19:14.268Z,97861.09
2022-09-20T04:21:58.024Z,97859.97
2022-09-20T04:25:16.778Z,97868.16
2022-09-20T04:27:50.360Z,97863.44
2022-09-20T04:30:24.339Z,97866.53
2022-09-20T04:33:23.460Z,97870.34
2022-09-20T04:36:28.436Z,97882.72
2022-09-20T04:39:05.044Z,97885.25
2022-09-20T04:42:30.132Z,97892.88
2022-09-20T04:45:51.526Z,97898.31
2022-09-20T04:48:59.799Z,97902.25
2022-09-20T04:52:00.749Z,97894.63
2022-09-20T04:54:55.196Z,97901.66
2022-09-20T04:57:58.348Z,97909.50
2022-09-20T05:00:31.139Z,97907.31
2022-09-20T05:03:55.841Z,97908.25
2022-09-20T05:07:23.912Z,97898.47
2022-09-20T05:10:48.215Z,97900.13
2022-09-20T05:14:05.559Z,97901.22
2022-09-20T05:16:50.902Z,97907.41
2022-09-20T05:19:46.514Z,97909.97
2022-09-20T05:22:38.667Z,97914.72
2022-09-20T05:25:47.522Z,97912.72
2022-09-20T05:28:25.546Z,97908.38
2022-09-20T05:31:16.653Z,97904.75
2022-09-20T05:34:25.656Z,97910.72
2022-09-20T05:37:13.636Z,97912.38
2022-09-20T05:40:13.877Z,97921.31
2022-09-20T05:42:55.660Z,97922.06
2022-09-20T05:46:10.536Z,97918.78
2022-09-20T05:49:02.789Z,97922.22
2022-09-20T05:52:08.044Z,97923.16
2022-09-20T05:55:20.868Z,97929.53
2022-09-20T05:58:16.155Z,97928.41
2022-09-20T06:00:48.918Z,97930.97
2022-09-20T06:03:37.079Z,97932.06
2022-09-20T06:06:32.384Z,97941.69
2022-09-20T06:09:21.013Z,97922.78
2022-09-20T06:12:25.273Z,97930.81
2022-09-20T06:15:01.967Z,97936.63
2022-09-20T06:17:38.597Z,97935.00
2022-09-20T06:20:24.555Z,97929.34
2022-09-20T06:22:54.844Z,97936.09
2022-09-20T06:25:59.697Z,97939.91
2022-09-20T06:28:42.860Z,97938.47
2022-09-20T06:31:11.339Z,97941.03
2022-09-20T06:33:47.862Z,97941.91
2022-09-20T06:36:59.608Z,97946.47
2022-09-20T06:40:40.368Z,97941.75
2022-09-20T06:43:07.056Z,97942.09
2022-09-20T06:45:33.682Z,97936.44
2022-09-20T06:48:00.584Z,97937.00
2022-09-20T06:50:27.553Z,97936.28
2022-09-20T06:52:57.314Z,97937.00
2022-09-20T06:55:45.547Z,97944.47
2022-09-20T06:58:12.980Z,97940.09
2022-09-20T07:00:42.537Z,97953.38
2022-09-20T07:03:09.305Z,97944.09
2022-09-20T07:05:36.296Z,97936.97
2022-09-20T07:08:03.248Z,97947.91
2022-09-20T07:10:30.340Z,97950.63
2022-09-20T07:13:01.827Z,97950.75
2022-09-20T07:15:31.398Z,97944.94
2022-09-20T07:17:57.952Z,97948.03
2022-09-20T07:20:24.841Z,97955.13
2022-09-20T07:22:52.351Z,97956.22
2022-09-20T07:25:19.111Z,97956.25
2022-09-20T07:27:46.935Z,97968.47
2022-09-20T07:30:15.021Z,97966.44
2022-09-20T07:32:41.967Z,97965.38
2022-09-20T07:35:09.851Z,97963.56
2022-09-20T07:37:37.326Z,97965.38
2022-09-20T07:40:05.248Z,97971.94
2022-09-20T07:42:32.162Z,97975.22
2022-09-20T07:44:59.416Z,97967.94
2022-09-20T07:47:27.909Z,97960.44
2022-09-20T07:49:55.375Z,97969.38
2022-09-20T07:52:21.981Z,97962.06
2022-09-20T07:54:49.955Z,97959.34
2022-09-20T07:57:16.951Z,97971.16
2022-09-20T07:59:43.736Z,97970.28
2022-09-20T08:02:19.220Z,97970.44
2022-09-20T08:04:45.832Z,97965.72
2022-09-20T08:07:12.751Z,97968.66
2022-09-20T08:09:39.504Z,97974.84
2022-09-20T08:14:55.302Z,97969.91
2022-09-20T08:17:21.891Z,97970.47
2022-09-20T08:19:48.578Z,97971.19
2022-09-20T08:22:15.332Z,97991.06
2022-09-20T08:24:42.542Z,97999.25
2022-09-20T08:27:09.100Z,98014.84
2022-09-20T08:29:35.587Z,97998.72
2022-09-20T08:32:03.377Z,97999.56
2022-09-20T08:34:30.906Z,97989.19
2022-09-20T08:36:57.437Z,97991.72
2022-09-20T08:42:34.920Z,98001.25
2022-09-20T08:45:33.882Z,98004.41
2022-09-20T08:48:05.654Z,98009.75
2022-09-20T08:50:34.399Z,98003.81
2022-09-20T08:53:05.968Z,97999.28
2022-09-20T08:55:37.378Z,98000.56
2022-09-20T08:58:08.525Z,97999.22
2022-09-20T09:00:37.184Z,98008.31
2022-09-20T09:03:12.145Z,98002.41
2022-09-20T09:05:45.937Z,97998.91
2022-09-20T09:08:22.008Z,97999.16
2022-09-20T09:11:02.148Z,98002.63
2022-09-20T09:13:34.721Z,97992.50
2022-09-20T09:16:09.949Z,97993.56
2022-09-20T09:18:40.790Z,97992.34
2022-09-20T09:21:12.174Z,97985.84
2022-09-20T09:23:42.392Z,97986.97
2022-09-20T09:26:21.810Z,97981.50
2022-09-20T09:29:20.761Z,97972.34
2022-09-20T09:31:50.040Z,97984.78
2022-09-20T09:34:30.626Z,97983.94
2022-09-20T09:36:58.359Z,97981.38
2022-09-20T09:39:31.018Z,97983.84
2022-09-20T09:42:01.699Z,97975.91
2022-09-20T09:44:33.806Z,97972.97
2022-09-20T09:47:00.456Z,97967.31
2022-09-20T09:49:36.034Z,97954.94
2022-09-20T09:52:17.780Z,97962.22
2022-09-20T09:54:50.613Z,97956.94
2022-09-20T09:58:05.963Z,97952.72
2022-09-20T10:00:35.803Z,97952.88
2022-09-20T10:03:55.003Z,97947.75
2022-09-20T10:06:50.510Z,97952.47
2022-09-20T10:09:53.909Z,97952.88
2022-09-20T10:12:26.341Z,97948.59
2022-09-20T10:15:11.687Z,97945.69
2022-09-20T10:18:19.647Z,97943.84
2022-09-20T10:21:25.793Z,97945.03
2022-09-20T10:24:04.278Z,97928.91
2022-09-20T10:26:53.454Z,97927.72
2022-09-20T10:29:27.773Z,97936.91
2022-09-20T10:32:31.553Z,97935.38
2022-09-20T10:35:26.439Z,97926.50
2022-09-20T10:38:27.761Z,97928.34
2022-09-20T10:41:31.657Z,97930.56
2022-09-20T10:44:40.060Z,97932.38
2022-09-20T10:47:20.475Z,97929.75
2022-09-20T10:50:29.272Z,97932.66
2022-09-20T10:53:43.627Z,97922.69
2022-09-20T10:56:33.551Z,97935.00
2022-09-20T10:59:22.541Z,97917.34
2022-09-20T11:02:18.225Z,97925.72
2022-09-20T11:05:42.088Z,97921.75
2022-09-20T11:08:19.978Z,97937.13
2022-09-20T11:11:03.050Z,97932.78
2022-09-20T11:13:58.295Z,97928.91
2022-09-20T11:16:47.885Z,97927.50
2022-09-20T11:19:26.961Z,97914.66
2022-09-20T11:22:13.225Z,97918.13
2022-09-20T11:24:57.942Z,97917.28
2022-09-20T11:27:32.042Z,97924.22
2022-09-20T11:30:19.254Z,97928.19
2022-09-20T11:33:41.647Z,97936.50
2022-09-20T11:36:15.486Z,97942.22
2022-09-20T11:38:52.887Z,97935.63
2022-09-20T11:41:31.062Z,97939.13
2022-09-20T11:44:10.150Z,97945.97
2022-09-20T11:47:26.604Z,97945.81
2022-09-20T11:54:04.895Z,97945.59
2022-09-20T11:59:41.043Z,97943.50
2022-09-20T12:13:08.482Z,97929.84
2022-09-20T12:15:39.798Z,97930.22
2022-09-20T12:27:49.130Z,97937.84
2022-09-20T12:30:19.444Z,97934.56
2022-09-20T12:32:52.128Z,97937.41
2022-09-20T12:35:59.334Z,97931.72
2022-09-20T12:38:33.092Z,97940.44
2022-09-20T12:41:13.051Z,97939.28
2022-09-20T12:43:57.199Z,97937.41
2022-09-20T12:46:51.432Z,97928.63
2022-09-20T12:49:50.224Z,97935.75
2022-09-20T12:52:51.892Z,97931.97
2022-09-20T12:55:30.022Z,97930.19
2022-09-20T12:58:28.636Z,97928.00
2022-09-20T13:01:29.533Z,97927.19
2022-09-20T13:04:40.707Z,97926.00
2022-09-20T13:07:40.076Z,97936.50
2022-09-20T13:10:30.186Z,97933.88
2022-09-20T13:13:04.762Z,97935.34
2022-09-20T13:15:33.193Z,97925.94
2022-09-20T13:18:02.187Z,97924.63
2022-09-20T13:20:34.721Z,97932.66
2022-09-20T13:23:03.875Z,97931.28
2022-09-20T13:25:32.987Z,97930.44
2022-09-20T13:28:37.388Z,97927.03
2022-09-20T13:31:26.722Z,97922.53
2022-09-20T13:33:54.066Z,97932.19
2022-09-20T13:36:29.984Z,97924.75
2022-09-20T13:38:58.301Z,97929.53
2022-09-20T13:41:29.201Z,97931.75
2022-09-20T13:43:57.299Z,97925.78
2022-09-20T13:46:34.165Z,97925.78
2022-09-20T13:49:17.691Z,97933.31
2022-09-20T13:51:44.265Z,97927.84
2022-09-20T13:54:18.073Z,97925.66
2022-09-20T13:56:44.897Z,97930.97
2022-09-20T13:59:19.355Z,97927.63
2022-09-20T14:01:52.952Z,97926.84
2022-09-20T14:04:25.705Z,97926.44
2022-09-20T14:06:55.108Z,97935.53
2022-09-20T14:09:28.811Z,97931.81
2022-09-20T14:11:56.431Z,97937.53
2022-09-20T14:14:24.518Z,97943.59
2022-09-20T14:16:53.447Z,97945.66
2022-09-20T14:19:23.559Z,97949.88
2022-09-20T14:21:50.369Z,97948.41
2022-09-20T14:24:37.599Z,97973.38
2022-09-20T14:27:05.995Z,97987.63
2022-09-20T14:29:41.149Z,97987.63
2022-09-20T14:32:45.130Z,97963.94
2022-09-20T14:35:20.435Z,97953.94
2022-09-20T14:37:53.301Z,97979.25
2022-09-20T14:40:26.442Z,97976.31
2022-09-20T14:42:57.260Z,97972.69
2022-09-20T14:45:43.228Z,97977.41
2022-09-20T14:48:37.656Z,97979.22
2022-09-20T14:51:36.510Z,97977.75
2022-09-20T14:54:30.003Z,97978.50
2022-09-20T14:56:59.469Z,97965.00
2022-09-20T14:59:36.757Z,97978.63
2022-09-20T15:02:15.708Z,97976.66
2022-09-20T15:04:54.275Z,97981.59
2022-09-20T15:07:21.318Z,97976.13
2022-09-20T15:09:48.610Z,97981.19
2022-09-20T15:12:17.944Z,97987.91
2022-09-20T15:14:45.023Z,97980.94
2022-09-20T15:17:21.863Z,97978.34
2022-09-20T15:19:49.339Z,97978.00
2022-09-20T15:22:16.516Z,97981.28
2022-09-20T15:24:43.180Z,97977.97
2022-09-20T15:27:13.682Z,97981.25
2022-09-20T15:29:40.446Z,97984.03
2022-09-20T15:32:09.082Z,97984.75
2022-09-20T15:34:35.689Z,97990.44
2022-09-20T15:37:02.266Z,97976.22
2022-09-20T15:39:28.879Z,97984.84
2022-09-20T15:41:55.621Z,97974.81
2022-09-20T15:44:22.266Z,97975.56
2022-09-20T15:46:50.839Z,97981.38
2022-09-20T15:49:17.664Z,97985.78
2022-09-20T15:51:46.328Z,97981.94
2022-09-20T15:54:14.763Z,97990.50
2022-09-20T15:56:42.042Z,97987.03
2022-09-20T15:59:11.274Z,97983.22
2022-09-20T16:01:40.145Z,97992.50
2022-09-20T16:04:12.438Z,97997.81
2022-09-20T16:06:41.371Z,97999.09
2022-09-20T16:09:08.240Z,98008.19
2022-09-20T16:11:35.702Z,98005.28
2022-09-20T16:14:02.799Z,98006.34
2022-09-20T16:16:36.112Z,97995.78
2022-09-20T16:19:18.070Z,98002.53
2022-09-20T16:21:55.114Z,97996.31
2022-09-20T16:24:28.985Z,97998.16
2022-09-20T16:26:56.339Z,98002.91
2022-09-20T16:29:25.050Z,97998.34
2022-09-20T16:31:53.889Z,97993.59
2022-09-20T16:34:29.688Z,98003.25
2022-09-20T16:37:01.334Z,98013.63
2022-09-20T16:39:29.073Z,98015.63
2022-09-20T16:41:57.967Z,98016.94
2022-09-20T16:44:24.642Z,98019.47
2022-09-20T16:46:51.369Z,98015.66
2022-09-20T16:49:18.078Z,98028.75
2022-09-20T16:51:46.293Z,98038.59
2022-09-20T16:54:14.933Z,98026.94
2022-09-20T16:56:46.409Z,98028.94
2022-09-20T16:59:15.644Z,98037.16
2022-09-20T17:01:43.156Z,98043.69
2022-09-20T17:04:10.718Z,98045.50
2022-09-20T17:06:38.913Z,98046.25
2022-09-20T17:09:07.146Z,98054.25
2022-09-20T17:11:36.767Z,98063.72
2022-09-20T17:14:04.906Z,98057.88
2022-09-20T17:16:34.813Z,98069.88
2022-09-20T17:19:07.430Z,98070.06
2022-09-20T17:21:35.990Z,98073.66
2022-09-20T17:24:05.083Z,98076.22
2022-09-20T17:26:33.279Z,98082.78
2022-09-20T17:29:05.749Z,98079.31
2022-09-20T17:31:37.817Z,98081.47
2022-09-20T17:34:07.693Z,98085.50
2022-09-20T17:36:39.096Z,98087.66
2022-09-20T17:39:06.701Z,98093.69
2022-09-20T17:41:37.559Z,98097.88
2022-09-20T17:44:18.052Z,98096.81
2022-09-20T17:46:58.412Z,98097.53
2022-09-20T17:49:28.461Z,98093.88
2022-09-20T17:51:57.171Z,98104.59
2022-09-20T17:54:24.650Z,98106.03
2022-09-20T17:56:56.986Z,98108.59
2022-09-20T17:59:24.568Z,98110.03
2022-09-20T18:01:51.881Z,98109.47
2022-09-20T18:04:20.811Z,98118.41
2022-09-20T18:06:49.492Z,98129.53
2022-09-20T18:09:21.532Z,98117.16
2022-09-20T18:11:52.215Z,98128.03
2022-09-20T18:14:35.647Z,98130.19
2022-09-20T18:17:05.875Z,98130.00
2022-09-20T18:19:33.994Z,98130.56
2022-09-20T18:22:04.169Z,98136.91
2022-09-20T18:24:31.255Z,98138.75
2022-09-20T18:26:58.051Z,98148.38
2022-09-20T18:29:25.103Z,98164.03
2022-09-20T18:31:54.461Z,98168.44
2022-09-20T18:34:23.164Z,98175.16
2022-09-20T18:36:55.595Z,98167.84
2022-09-20T18:39:26.257Z,98176.94
2022-09-20T18:41:53.534Z,98175.66
2022-09-20T18:44:21.205Z,98179.31
2022-09-20T18:46:48.401Z,98180.38
2022-09-20T18:49:16.802Z,98179.81
2022-09-20T18:51:44.806Z,98181.84
2022-09-20T18:54:12.177Z,98179.09
2022-09-20T18:56:43.742Z,98188.34
2022-09-20T18:59:21.798Z,98187.47
2022-09-20T19:02:08.924Z,98191.09
2022-09-20T19:05:31.134Z,98190.94
2022-09-20T19:08:30.057Z,98194.91
2022-09-20T19:11:01.419Z,98197.25
2022-09-20T19:13:44.916Z,98198.31
2022-09-20T19:16:27.685Z,98199.78
2022-09-20T19:19:29.611Z,98199.66
2022-09-20T19:22:14.802Z,98203.81
2022-09-20T19:25:07.740Z,98202.75
2022-09-20T19:27:34.891Z,98211.28
2022-09-20T19:30:01.911Z,98206.34
2022-09-20T19:32:29.037Z,98205.09
2022-09-20T19:34:57.235Z,98210.00
2022-09-20T19:37:37.754Z,98210.25
2022-09-20T19:40:35.682Z,98216.59
2022-09-20T19:43:31.870Z,98211.66
2022-09-20T19:46:32.113Z,98226.22
2022-09-20T19:49:14.748Z,98224.78
2022-09-20T19:51:44.157Z,98217.84
2022-09-20T19:54:15.210Z,98231.28
2022-09-20T19:57:01.973Z,98225.44
2022-09-20T19:59:28.992Z,98225.69
2022-09-20T20:01:56.590Z,98223.31
2022-09-20T20:04:24.043Z,98219.69
2022-09-20T20:07:22.066Z,98222.19
2022-09-20T20:10:03.203Z,98221.06
2022-09-20T20:13:34.871Z,98229.41
2022-09-20T20:16:05.084Z,98234.47
2022-09-20T20:19:06.297Z,98231.88
2022-09-20T20:21:47.150Z,98229.81
2022-09-20T20:24:32.766Z,98239.28
2022-09-20T20:26:59.395Z,98235.81
2022-09-20T20:29:25.945Z,98241.63
2022-09-20T20:31:52.483Z,98239.41
2022-09-20T20:34:20.553Z,98242.00
2022-09-20T20:36:47.344Z,98243.06
2022-09-20T20:39:14.158Z,98239.28
2022-09-20T20:41:41.184Z,98246.53
2022-09-20T20:44:07.740Z,98246.72
2022-09-20T20:46:36.007Z,98247.47
2022-09-20T20:49:03.703Z,98243.66
2022-09-20T20:51:33.103Z,98241.28
2022-09-20T20:53:59.874Z,98244.41
2022-09-20T20:56:29.866Z,98250.56
2022-09-20T20:59:01.089Z,98248.91
2022-09-20T21:01:30.345Z,98251.66
2022-09-20T21:03:58.554Z,98248.72
2022-09-20T21:06:28.441Z,98255.25
2022-09-20T21:08:55.032Z,98256.91
2022-09-20T21:11:27.428Z,98261.50
2022-09-20T21:13:57.184Z,98263.69
2022-09-20T21:16:31.927Z,98267.88
2022-09-20T21:18:58.737Z,98270.06
2022-09-20T21:21:28.411Z,98266.66
2022-09-20T21:23:56.914Z,98274.84
2022-09-20T21:26:25.061Z,98277.91
2022-09-20T21:28:53.883Z,98274.13
2022-09-20T21:31:22.512Z,98273.56
2022-09-20T21:33:49.826Z,98271.00
2022-09-20T21:36:18.435Z,98269.94
2022-09-20T21:38:45.937Z,98277.78
2022-09-20T21:41:24.769Z,98284.50
2022-09-20T21:43:56.022Z,98279.03
2022-09-20T21:46:28.548Z,98289.44
2022-09-20T21:48:55.970Z,98287.38
2022-09-20T21:51:23.289Z,98293.34
2022-09-20T21:53:53.027Z,98290.44
2022-09-20T21:56:19.997Z,98292.94
2022-09-20T21:58:46.837Z,98298.22
2022-09-20T22:01:21.537Z,98290.75
2022-09-20T22:03:54.900Z,98298.41
2022-09-20T22:06:23.716Z,98297.34
2022-09-20T22:09:01.755Z,98299.56
2022-09-20T22:11:31.879Z,98292.16
2022-09-20T22:13:59.373Z,98301.13
2022-09-20T22:16:34.260Z,98299.13
2022-09-20T22:19:01.229Z,98293.66
2022-09-20T22:21:33.368Z,98296.00
2022-09-20T22:24:02.690Z,98302.72
2022-09-20T22:26:34.973Z,98304.53
2022-09-20T22:29:02.851Z,98305.06
2022-09-20T22:31:31.695Z,98307.97
2022-09-20T22:34:03.942Z,98298.13
2022-09-20T22:36:38.653Z,98302.91
2022-09-20T22:39:07.492Z,98309.47
2022-09-20T22:41:34.858Z,98298.94
2022-09-20T22:44:01.797Z,98305.13
2022-09-20T22:46:30.580Z,98296.53
2022-09-20T22:48:57.611Z,98299.63
2022-09-20T22:51:26.944Z,98297.22
2022-09-20T22:53:54.028Z,98299.00
2022-09-20T22:56:24.826Z,98301.53
2022-09-20T22:58:53.997Z,98305.19
2022-09-20T23:01:23.669Z,98295.34
2022-09-20T23:04:01.860Z,98301.88
2022-09-20T23:06:32.780Z,98303.47
2022-09-20T23:09:01.377Z,98304.19
2022-09-20T23:11:29.105Z,98307.47
2022-09-20T23:13:58.545Z,98308.13
2022-09-20T23:16:27.388Z,98313.59
2022-09-20T23:18:54.999Z,98318.50
2022-09-20T23:21:22.489Z,98316.84
2022-09-20T23:23:56.701Z,98313.97
2022-09-20T23:26:25.329Z,98310.31
2022-09-20T23:29:00.641Z,98319.75
2022-09-20T23:31:29.439Z,98313.97
2022-09-20T23:34:01.389Z,98319.25
2022-09-20T23:36:30.571Z,98317.09
2022-09-20T23:38:57.129Z,98314.19
2022-09-20T23:41:25.791Z,98317.97
2022-09-20T23:43:52.889Z,98324.16
2022-09-20T23:46:21.275Z,98326.75
2022-09-20T23:48:48.167Z,98328.41
2022-09-20T23:51:17.621Z,98333.47
2022-09-20T23:53:44.931Z,98322.38
2022-09-20T23:56:13.364Z,98330.00
2022-09-20T23:58:41.625Z,98324.50
